createdAt,value
2022-10-31T00:01:14.620Z,98606.84
2022-10-31T00:03:41.049Z,98605.59
2022-10-31T00:06:07.741Z,98619.56
2022-10-31T00:08:34.359Z,98624.72
2022-10-31T00:11:01.170Z,98619.78
2022-10-31T00:13:27.720Z,98613.09
2022-10-31T00:15:54.148Z,98626.72
2022-10-31T00:18:20.653Z,98626.44
2022-10-31T00:20:47.060Z,98629.63
2022-10-31T00:23:13.537Z,98623.47
2022-10-31T00:25:40.981Z,98624.19
2022-10-31T00:28:09.893Z,98627.47
2022-10-31T00:30:36.654Z,98618.06
2022-10-31T00:33:05.397Z,98634.84
2022-10-31T00:35:32.603Z,98625.00
2022-10-31T00:37:59.108Z,98628.31
2022-10-31T00:40:25.678Z,98637.03
2022-10-31T00:42:52.381Z,98628.38
2022-10-31T00:45:18.829Z,98625.66
2022-10-31T00:47:45.327Z,98627.13
2022-10-31T00:50:11.868Z,98628.31
2022-10-31T00:52:38.423Z,98633.06
2022-10-31T00:55:05.236Z,98635.31
2022-10-31T00:57:31.855Z,98626.38
2022-10-31T00:59:58.345Z,98637.75
2022-10-31T01:02:24.828Z,98628.69
2022-10-31T01:04:51.375Z,98634.59
2022-10-31T01:07:17.801Z,98624.94
2022-10-31T01:09:44.964Z,98627.44
2022-10-31T01:12:11.528Z,98617.03
2022-10-31T01:14:43.054Z,98625.66
2022-10-31T01:17:09.489Z,98622.81
2022-10-31T01:19:36.027Z,98620.50
2022-10-31T01:22:02.484Z,98622.41
2022-10-31T01:24:29.837Z,98619.75
2022-10-31T01:26:56.355Z,98619.09
2022-10-31T01:29:22.819Z,98621.94
2022-10-31T01:31:49.536Z,98606.41
2022-10-31T01:34:18.296Z,98619.88
2022-10-31T01:36:47.772Z,98612.50
2022-10-31T01:39:16.331Z,98617.84
2022-10-31T01:41:46.083Z,98607.75
2022-10-31T01:44:16.180Z,98620.31
2022-10-31T01:47:21.550Z,98611.88
2022-10-31T01:49:55.543Z,98614.59
2022-10-31T01:52:31.633Z,98614.66
2022-10-31T01:55:20.076Z,98620.34
2022-10-31T01:57:51.036Z,98613.41
2022-10-31T02:00:18.709Z,98581.47
2022-10-31T02:02:47.199Z,98590.09
2022-10-31T02:05:19.568Z,98619.75
2022-10-31T02:08:01.073Z,98626.78
2022-10-31T02:10:31.341Z,98625.31
2022-10-31T02:13:00.818Z,98619.59
2022-10-31T02:15:29.294Z,98616.94
2022-10-31T02:17:55.759Z,98614.28
2022-10-31T02:20:25.147Z,98606.69
2022-10-31T02:23:03.919Z,98616.72
2022-10-31T02:25:54.233Z,98611.47
2022-10-31T02:28:24.345Z,98617.34
2022-10-31T02:31:28.392Z,98606.09
2022-10-31T02:34:00.489Z,98599.56
2022-10-31T02:36:42.072Z,98599.53
2022-10-31T02:39:14.616Z,98597.91
2022-10-31T02:42:02.122Z,98593.69
2022-10-31T02:44:39.363Z,98594.31
2022-10-31T02:47:12.983Z,98583.66
2022-10-31T02:49:50.208Z,98583.81
2022-10-31T02:52:24.756Z,98585.44
2022-10-31T02:54:53.020Z,98590.53
2022-10-31T02:57:25.341Z,98577.59
2022-10-31T02:59:59.118Z,98571.31
2022-10-31T03:02:58.652Z,98580.69
2022-10-31T03:05:35.529Z,98579.91
2022-10-31T03:08:21.558Z,98573.34
2022-10-31T03:10:57.068Z,98578.19
2022-10-31T03:13:35.365Z,98574.06
2022-10-31T03:16:30.073Z,98581.47
2022-10-31T03:19:06.063Z,98582.28
2022-10-31T03:21:46.259Z,98586.84
2022-10-31T03:24:14.518Z,98576.66
2022-10-31T03:26:47.256Z,98580.09
2022-10-31T03:29:19.551Z,98572.50
2022-10-31T03:31:53.046Z,98575.44
2022-10-31T03:34:21.761Z,98573.09
2022-10-31T03:36:52.932Z,98553.84
2022-10-31T03:39:22.607Z,98575.06
2022-10-31T03:42:03.278Z,98576.66
2022-10-31T03:44:31.089Z,98573.66
2022-10-31T03:47:02.093Z,98571.00
2022-10-31T03:49:29.487Z,98578.75
2022-10-31T03:52:07.149Z,98581.84
2022-10-31T03:54:46.410Z,98575.13
2022-10-31T03:57:18.882Z,98574.75
2022-10-31T03:59:51.884Z,98577.59
2022-10-31T04:02:23.641Z,98579.03
2022-10-31T04:04:51.753Z,98587.44
2022-10-31T04:07:19.569Z,98584.53
2022-10-31T04:09:52.390Z,98584.72
2022-10-31T04:12:22.550Z,98589.63
2022-10-31T04:15:10.897Z,98588.25
2022-10-31T04:17:43.536Z,98592.53
2022-10-31T04:20:10.951Z,98585.34
2022-10-31T04:22:37.637Z,98523.75
2022-10-31T04:25:04.434Z,98581.66
2022-10-31T04:27:30.994Z,98587.81
2022-10-31T04:29:57.508Z,98576.72
2022-10-31T04:32:24.691Z,98588.63
2022-10-31T04:34:52.556Z,98576.50
2022-10-31T04:37:19.347Z,98577.75
2022-10-31T04:39:47.424Z,98576.53
2022-10-31T04:42:45.950Z,98554.88
2022-10-31T04:45:15.503Z,98577.56
2022-10-31T04:47:45.087Z,98572.00
2022-10-31T04:50:11.527Z,98577.31
2022-10-31T04:52:42.860Z,98579.16
2022-10-31T04:55:12.853Z,98578.78
2022-10-31T04:57:58.758Z,98580.84
2022-10-31T05:00:26.742Z,98575.13
2022-10-31T05:02:55.753Z,98559.50
2022-10-31T05:05:29.766Z,98562.38
2022-10-31T05:07:56.779Z,98559.56
2022-10-31T05:10:27.483Z,98552.00
2022-10-31T05:12:58.504Z,98567.97
2022-10-31T05:15:43.244Z,98563.03
2022-10-31T05:18:35.601Z,98558.75
2022-10-31T05:21:04.758Z,98556.72
2022-10-31T05:23:35.412Z,98556.09
2022-10-31T05:26:04.099Z,98555.09
2022-10-31T05:28:30.594Z,98545.03
2022-10-31T05:30:58.028Z,98551.38
2022-10-31T05:33:24.727Z,98553.03
2022-10-31T05:36:09.907Z,98558.34
2022-10-31T05:38:41.820Z,98551.19
2022-10-31T05:41:13.195Z,98546.84
2022-10-31T05:43:44.058Z,98546.22
2022-10-31T05:46:10.524Z,98526.44
2022-10-31T05:49:03.144Z,98532.75
2022-10-31T05:52:04.964Z,98520.69
2022-10-31T05:54:40.447Z,98512.28
2022-10-31T05:57:06.967Z,98531.91
2022-10-31T05:59:33.465Z,98527.63
2022-10-31T06:02:00.847Z,98530.09
2022-10-31T06:04:47.542Z,98529.28
2022-10-31T06:07:14.263Z,98473.69
2022-10-31T06:09:40.671Z,98528.47
2022-10-31T06:12:08.615Z,98527.69
2022-10-31T06:15:08.324Z,98526.25
2022-10-31T06:17:35.834Z,98531.56
2022-10-31T06:20:05.995Z,98531.94
2022-10-31T06:22:37.991Z,98516.38
2022-10-31T06:25:05.408Z,98514.13
2022-10-31T06:27:35.025Z,98531.34
2022-10-31T06:30:09.172Z,98529.50
2022-10-31T06:32:36.962Z,98521.97
2022-10-31T06:35:03.997Z,98518.88
2022-10-31T06:37:33.029Z,98535.25
2022-10-31T06:40:06.800Z,98524.41
2022-10-31T06:42:48.619Z,98540.53
2022-10-31T06:45:15.154Z,98536.69
2022-10-31T06:48:18.677Z,98537.13
2022-10-31T06:51:03.947Z,98539.13
2022-10-31T06:53:33.486Z,98533.34
2022-10-31T06:56:00.581Z,98525.59
2022-10-31T06:58:27.151Z,98533.38
2022-10-31T07:01:01.394Z,98542.88
2022-10-31T07:03:28.136Z,98533.06
2022-10-31T07:05:56.953Z,98534.66
2022-10-31T07:08:24.537Z,98538.53
2022-10-31T07:10:54.037Z,98536.59
2022-10-31T07:13:28.228Z,98530.69
2022-10-31T07:16:05.551Z,98520.28
2022-10-31T07:18:34.953Z,98538.31
2022-10-31T07:21:01.937Z,98520.88
2022-10-31T07:23:28.398Z,98534.09
2022-10-31T07:26:13.471Z,98537.94
2022-10-31T07:28:46.839Z,98522.34
2022-10-31T07:31:13.815Z,98531.41
2022-10-31T07:33:40.725Z,98537.72
2022-10-31T07:36:27.443Z,98535.84
2022-10-31T07:38:59.324Z,98539.56
2022-10-31T07:41:25.985Z,98542.16
2022-10-31T07:46:43.130Z,98548.41
2022-10-31T07:49:35.424Z,98550.41
2022-10-31T07:52:20.613Z,98536.72
2022-10-31T07:55:06.974Z,98540.69
2022-10-31T07:57:37.489Z,98538.28
2022-10-31T08:00:09.593Z,98496.53
2022-10-31T08:02:41.351Z,98535.84
2022-10-31T08:05:31.897Z,98538.28
2022-10-31T08:08:18.396Z,98534.91
2022-10-31T08:10:47.546Z,98537.13
2022-10-31T08:13:15.149Z,98518.00
2022-10-31T08:15:50.793Z,98538.72
2022-10-31T08:18:18.822Z,98549.13
2022-10-31T08:20:45.708Z,98548.53
2022-10-31T08:23:13.604Z,98544.81
2022-10-31T08:25:43.180Z,98551.97
2022-10-31T08:28:11.552Z,98552.78
2022-10-31T08:30:42.069Z,98539.47
2022-10-31T08:33:47.048Z,98543.00
2022-10-31T08:36:19.806Z,98507.38
2022-10-31T08:38:55.469Z,98539.25
2022-10-31T08:41:24.359Z,98529.56
2022-10-31T08:43:50.858Z,98535.88
2022-10-31T08:46:17.688Z,98529.63
2022-10-31T08:48:44.745Z,98524.66
2022-10-31T08:51:12.011Z,98526.38
2022-10-31T08:53:38.469Z,98524.53
2022-10-31T08:56:30.812Z,98522.09
2022-10-31T08:58:57.268Z,98520.13
2022-10-31T09:01:33.462Z,98523.63
2022-10-31T09:04:00.043Z,98514.19
2022-10-31T09:06:26.955Z,98517.00
2022-10-31T09:08:54.038Z,98518.97
2022-10-31T09:11:24.585Z,98516.88
2022-10-31T09:14:09.524Z,98506.75
2022-10-31T09:16:38.673Z,98500.44
2022-10-31T09:19:11.433Z,98503.00
2022-10-31T09:21:38.359Z,98498.88
2022-10-31T09:24:05.436Z,98500.13
2022-10-31T09:26:31.969Z,98491.72
2022-10-31T09:29:24.471Z,98490.50
2022-10-31T09:31:57.444Z,98481.28
2022-10-31T09:34:28.733Z,98475.50
2022-10-31T09:37:15.476Z,98481.88
2022-10-31T09:39:42.992Z,98480.66
2022-10-31T09:42:29.948Z,98490.56
2022-10-31T09:45:23.355Z,98490.66
2022-10-31T09:48:25.335Z,98485.75
2022-10-31T09:51:23.091Z,98487.00
2022-10-31T09:53:56.480Z,98454.94
2022-10-31T09:56:26.292Z,98479.41
2022-10-31T09:59:00.586Z,98478.66
2022-10-31T10:01:49.722Z,98479.72
2022-10-31T10:04:37.980Z,98471.25
2022-10-31T10:07:21.242Z,98470.38
2022-10-31T10:10:26.311Z,98459.78
2022-10-31T10:13:54.749Z,98467.41
2022-10-31T10:16:34.486Z,98455.75
2022-10-31T10:19:19.267Z,98455.25
2022-10-31T10:22:13.368Z,98443.25
2022-10-31T10:24:51.741Z,98455.22
2022-10-31T10:27:30.513Z,98451.56
2022-10-31T10:30:04.639Z,98462.47
2022-10-31T10:32:41.360Z,98459.34
2022-10-31T10:35:22.993Z,98452.19
2022-10-31T10:37:53.725Z,98458.63
2022-10-31T10:40:26.061Z,98449.84
2022-10-31T10:43:23.477Z,98454.44
2022-10-31T10:46:15.551Z,98425.06
2022-10-31T10:48:47.872Z,98447.38
2022-10-31T10:52:39.290Z,98442.44
2022-10-31T10:55:28.007Z,98450.28
2022-10-31T10:58:08.503Z,98438.34
2022-10-31T11:00:50.856Z,98441.13
2022-10-31T11:03:18.917Z,98442.25
2022-10-31T11:05:52.316Z,98386.06
2022-10-31T11:08:30.719Z,98421.84
2022-10-31T11:11:03.574Z,98414.88
2022-10-31T11:13:31.253Z,98400.38
2022-10-31T11:16:04.829Z,98394.72
2022-10-31T11:18:35.159Z,98378.19
2022-10-31T11:21:04.349Z,98396.09
2022-10-31T11:23:31.735Z,98399.41
2022-10-31T11:26:03.719Z,98395.13
2022-10-31T11:28:33.130Z,98391.34
2022-10-31T11:31:01.575Z,98389.19
2022-10-31T11:33:41.425Z,98395.44
2022-10-31T11:36:23.032Z,98375.13
2022-10-31T11:38:51.208Z,98381.03
2022-10-31T11:41:20.700Z,98374.03
2022-10-31T11:43:57.660Z,98365.44
2022-10-31T11:46:52.885Z,98378.69
2022-10-31T11:49:57.848Z,98378.69
2022-10-31T11:52:31.006Z,98363.81
2022-10-31T11:55:14.491Z,98360.06
2022-10-31T11:57:44.026Z,98358.72
2022-10-31T12:00:31.458Z,98355.19
2022-10-31T12:03:34.238Z,98348.19
2022-10-31T12:06:09.889Z,98347.09
2022-10-31T12:08:38.229Z,98358.72
2022-10-31T12:11:26.065Z,98358.19
2022-10-31T12:14:06.393Z,98313.38
2022-10-31T12:16:37.073Z,98343.91
2022-10-31T12:19:10.613Z,98347.69
2022-10-31T12:21:58.585Z,98346.31
2022-10-31T12:24:56.815Z,98330.94
2022-10-31T12:28:00.912Z,98323.69
2022-10-31T12:30:48.750Z,98323.13
2022-10-31T12:33:30.647Z,98306.16
2022-10-31T12:36:22.105Z,98303.44
2022-10-31T12:38:59.466Z,98291.03
2022-10-31T12:41:50.908Z,98288.63
2022-10-31T12:44:35.844Z,98291.53
2022-10-31T12:47:19.434Z,98283.47
2022-10-31T12:50:16.792Z,98283.22
2022-10-31T12:52:58.737Z,98278.09
2022-10-31T12:55:57.854Z,98265.69
2022-10-31T12:58:50.561Z,98264.06
2022-10-31T13:01:23.648Z,98257.31
2022-10-31T13:04:03.795Z,98262.44
2022-10-31T13:06:44.307Z,98280.25
2022-10-31T13:09:18.677Z,98284.03
2022-10-31T13:11:51.145Z,98277.03
2022-10-31T13:14:48.405Z,98289.69
2022-10-31T13:17:39.807Z,98283.81
2022-10-31T13:20:24.840Z,98268.41
2022-10-31T13:22:56.756Z,98273.50
2022-10-31T13:25:32.485Z,98269.16
2022-10-31T13:28:06.644Z,98266.22
2022-10-31T13:30:37.375Z,98251.59
2022-10-31T13:33:26.476Z,98242.72
2022-10-31T13:36:17.249Z,98244.81
2022-10-31T13:39:11.070Z,98248.38
2022-10-31T13:41:54.773Z,98249.16
2022-10-31T13:44:27.691Z,98170.41
2022-10-31T13:46:56.600Z,98237.25
2022-10-31T13:49:29.168Z,98232.94
2022-10-31T13:52:10.700Z,98234.59
2022-10-31T13:54:40.052Z,98237.56
2022-10-31T13:57:34.016Z,98224.34
2022-10-31T14:00:05.864Z,98227.06
2022-10-31T14:02:45.711Z,98224.63
2022-10-31T14:05:32.207Z,98223.59
2022-10-31T14:08:02.453Z,98141.09
2022-10-31T14:10:37.745Z,98220.59
2022-10-31T14:13:21.788Z,98219.53
2022-10-31T14:15:58.301Z,98204.72
2022-10-31T14:18:50.730Z,98208.47
2022-10-31T14:21:26.040Z,98217.66
2022-10-31T14:23:55.017Z,98220.63
2022-10-31T14:26:28.057Z,98210.66
2022-10-31T14:28:58.636Z,98198.25
2022-10-31T14:31:38.526Z,98192.31
2022-10-31T14:34:21.206Z,98186.66
2022-10-31T14:36:50.662Z,98177.22
2022-10-31T14:39:36.457Z,98179.91
2022-10-31T14:42:21.178Z,98178.84
2022-10-31T14:45:13.504Z,98180.72
2022-10-31T14:48:21.633Z,98171.81
2022-10-31T14:50:59.252Z,98168.59
2022-10-31T14:53:29.866Z,98175.31
2022-10-31T14:56:01.393Z,98173.97
2022-10-31T14:58:46.831Z,98171.47
2022-10-31T15:01:26.059Z,98145.28
2022-10-31T15:04:21.922Z,98108.66
2022-10-31T15:06:43.810Z,98091.97
2022-10-31T15:09:26.752Z,98098.41
2022-10-31T15:11:53.369Z,98086.31
2022-10-31T15:14:24.368Z,98089.03
2022-10-31T15:16:51.859Z,98091.16
2022-10-31T15:19:23.951Z,98080.94
2022-10-31T15:21:53.132Z,98070.97
2022-10-31T15:24:20.489Z,98049.66
2022-10-31T15:26:49.868Z,98040.78
2022-10-31T15:29:19.078Z,98042.13
2022-10-31T15:31:57.005Z,98029.72
2022-10-31T15:34:38.960Z,98028.91
2022-10-31T15:37:10.716Z,98033.78
2022-10-31T15:39:37.195Z,98032.69
2022-10-31T15:42:04.307Z,98044.84
2022-10-31T15:44:41.792Z,98040.50
2022-10-31T15:47:17.967Z,98049.91
2022-10-31T15:49:51.736Z,98051.22
2022-10-31T15:52:28.599Z,98042.78
2022-10-31T15:54:58.722Z,98057.34
2022-10-31T15:57:27.217Z,98051.94
2022-10-31T15:59:54.566Z,98070.78
2022-10-31T16:02:25.888Z,98064.84
2022-10-31T16:04:59.458Z,98064.84
2022-10-31T16:07:26.411Z,98069.16
2022-10-31T16:10:04.683Z,98077.44
2022-10-31T16:12:46.033Z,98089.25
2022-10-31T16:15:16.554Z,98102.41
2022-10-31T16:17:46.622Z,98100.72
2022-10-31T16:20:21.621Z,98100.22
2022-10-31T16:22:51.164Z,98092.69
2022-10-31T16:25:26.293Z,98101.03
2022-10-31T16:27:55.116Z,98128.44
2022-10-31T16:30:30.741Z,98124.94
2022-10-31T16:33:00.138Z,98128.94
2022-10-31T16:35:38.324Z,98125.44
2022-10-31T16:38:05.814Z,98130.53
2022-10-31T16:40:33.770Z,98115.19
2022-10-31T16:43:01.478Z,98104.75
2022-10-31T16:45:31.041Z,98103.19
2022-10-31T16:48:11.872Z,98102.66
2022-10-31T16:50:39.179Z,98079.31
2022-10-31T16:53:13.695Z,98107.97
2022-10-31T16:55:46.897Z,98104.78
2022-10-31T16:58:21.632Z,98104.13
2022-10-31T17:00:48.402Z,98100.41
2022-10-31T17:03:15.029Z,98102.22
2022-10-31T17:05:41.418Z,98106.28
2022-10-31T17:08:07.933Z,98092.81
2022-10-31T17:10:34.691Z,98086.72
2022-10-31T17:13:03.771Z,98067.34
2022-10-31T17:15:39.148Z,98088.78
2022-10-31T17:18:05.592Z,98098.00
2022-10-31T17:20:32.235Z,98081.66
2022-10-31T17:23:00.182Z,98091.03
2022-10-31T17:25:31.811Z,98100.25
2022-10-31T17:27:59.294Z,98103.00
2022-10-31T17:30:26.375Z,98099.06
2022-10-31T17:32:53.232Z,98116.13
2022-10-31T17:35:19.945Z,98112.53
2022-10-31T17:37:46.962Z,98129.81
2022-10-31T17:40:17.101Z,98146.09
2022-10-31T17:42:49.549Z,98134.22
2022-10-31T17:45:16.113Z,98132.78
2022-10-31T17:47:42.582Z,98131.97
2022-10-31T17:50:09.423Z,98121.75
2022-10-31T17:52:35.819Z,98128.94
2022-10-31T17:55:02.281Z,98119.75
2022-10-31T17:57:33.696Z,98140.97
2022-10-31T18:00:00.173Z,98148.69
2022-10-31T18:02:26.681Z,98130.91
2022-10-31T18:04:53.224Z,98134.66
2022-10-31T18:07:20.223Z,98138.41
2022-10-31T18:09:47.701Z,98134.81
2022-10-31T18:12:15.356Z,98145.84
2022-10-31T18:14:47.279Z,98140.38
2022-10-31T18:17:15.090Z,98143.69
2022-10-31T18:19:41.505Z,98144.25
2022-10-31T18:22:07.948Z,98143.53
2022-10-31T18:24:34.385Z,98139.47
2022-10-31T18:27:00.852Z,98143.44
2022-10-31T18:29:27.360Z,98143.06
2022-10-31T18:31:54.425Z,98141.25
2022-10-31T18:34:20.967Z,98141.22
2022-10-31T18:36:47.775Z,98140.97
2022-10-31T18:39:14.690Z,98094.38
2022-10-31T18:41:41.135Z,98148.09
2022-10-31T18:44:07.816Z,98146.22
2022-10-31T18:46:35.112Z,98131.03
2022-10-31T18:49:02.450Z,98128.69
2022-10-31T18:51:28.996Z,98131.84
2022-10-31T18:54:00.559Z,98130.28
2022-10-31T18:56:29.029Z,98140.16
2022-10-31T18:58:55.500Z,98141.38
2022-10-31T19:01:22.279Z,98106.41
2022-10-31T19:03:56.274Z,98120.47
2022-10-31T19:06:24.923Z,98114.03
2022-10-31T19:08:57.458Z,98126.41
2022-10-31T19:11:23.902Z,98125.56
2022-10-31T19:13:50.356Z,98131.72
2022-10-31T19:16:17.047Z,98125.56
2022-10-31T19:18:44.111Z,98126.72
2022-10-31T19:21:15.948Z,98116.34
2022-10-31T19:23:43.200Z,98123.13
2022-10-31T19:26:10.270Z,98120.69
2022-10-31T19:28:39.258Z,98106.88
2022-10-31T19:31:06.691Z,98102.03
2022-10-31T19:33:36.029Z,98123.56
2022-10-31T19:36:09.643Z,98107.38
2022-10-31T19:38:41.508Z,98095.06
2022-10-31T19:41:11.334Z,98094.47
2022-10-31T19:43:37.824Z,98101.44
2022-10-31T19:46:07.027Z,98104.34
2022-10-31T19:48:36.398Z,98107.59
2022-10-31T19:51:05.728Z,98100.63
2022-10-31T19:53:32.231Z,98079.50
2022-10-31T19:55:59.684Z,98103.00
2022-10-31T19:58:26.794Z,98097.66
2022-10-31T20:00:54.032Z,98074.88
2022-10-31T20:03:22.532Z,98102.88
2022-10-31T20:05:50.300Z,98090.91
2022-10-31T20:08:21.649Z,98031.03
2022-10-31T20:11:00.087Z,98098.25
2022-10-31T20:13:28.171Z,98096.97
2022-10-31T20:16:02.674Z,98085.56
2022-10-31T20:18:29.819Z,98091.50
2022-10-31T20:21:12.466Z,98078.50
2022-10-31T20:23:39.900Z,98073.91
2022-10-31T20:26:09.355Z,98062.63
2022-10-31T20:28:39.959Z,98073.44
2022-10-31T20:31:12.806Z,98071.38
2022-10-31T20:33:39.808Z,98081.66
2022-10-31T20:36:08.037Z,98072.63
2022-10-31T20:38:38.100Z,98080.41
2022-10-31T20:41:06.825Z,98075.75
2022-10-31T20:43:34.261Z,98046.25
2022-10-31T20:46:05.562Z,98069.13
2022-10-31T20:48:32.724Z,98064.63
2022-10-31T20:51:06.428Z,98068.19
2022-10-31T20:53:33.951Z,97960.72
2022-10-31T20:56:22.333Z,98059.03
2022-10-31T20:58:49.572Z,98057.88
2022-10-31T21:01:24.896Z,98062.41
2022-10-31T21:03:52.019Z,98059.97
2022-10-31T21:06:19.879Z,98069.25
2022-10-31T21:08:47.129Z,98067.19
2022-10-31T21:11:16.556Z,98072.03
2022-10-31T21:13:44.659Z,98068.19
2022-10-31T21:16:15.020Z,98062.84
2022-10-31T21:18:43.372Z,98066.59
2022-10-31T21:21:12.412Z,98042.66
2022-10-31T21:23:39.365Z,98064.72
2022-10-31T21:26:12.588Z,98054.97
2022-10-31T21:28:39.332Z,98062.19
2022-10-31T21:31:08.319Z,98066.03
2022-10-31T21:33:35.309Z,98067.28
2022-10-31T21:36:02.306Z,98045.00
2022-10-31T21:38:29.014Z,98067.63
2022-10-31T21:41:03.778Z,98053.00
2022-10-31T21:43:30.706Z,98051.94
2022-10-31T21:46:03.210Z,98067.84
2022-10-31T21:48:30.050Z,98068.91
2022-10-31T21:50:56.516Z,98062.66
2022-10-31T21:53:41.311Z,97958.53
2022-10-31T21:56:08.211Z,98067.63
2022-10-31T21:58:36.316Z,98059.84
2022-10-31T22:01:05.427Z,98062.63
2022-10-31T22:03:36.873Z,98059.50
2022-10-31T22:06:07.955Z,98062.31
2022-10-31T22:08:34.694Z,98058.34
2022-10-31T22:11:05.547Z,98051.06
2022-10-31T22:13:32.875Z,98046.16
2022-10-31T22:16:04.041Z,98045.72
2022-10-31T22:18:30.923Z,98039.09
2022-10-31T22:21:05.850Z,98034.91
2022-10-31T22:23:32.688Z,98037.56
2022-10-31T22:26:14.000Z,98033.88
2022-10-31T22:28:46.468Z,98026.53
2022-10-31T22:31:17.848Z,98034.66
2022-10-31T22:33:45.686Z,98025.25
2022-10-31T22:36:15.231Z,98012.03
2022-10-31T22:38:42.283Z,98031.31
2022-10-31T22:41:20.176Z,98032.81
2022-10-31T22:43:47.612Z,98032.25
2022-10-31T22:46:16.760Z,98029.69
2022-10-31T22:48:48.313Z,98021.78
2022-10-31T22:51:20.771Z,98014.91
2022-10-31T22:53:48.000Z,98012.81
2022-10-31T22:56:17.247Z,98021.06
2022-10-31T22:58:44.306Z,98010.84
2022-10-31T23:01:16.030Z,98007.88
2022-10-31T23:03:42.727Z,98006.00
2022-10-31T23:06:15.464Z,98007.75
2022-10-31T23:08:42.852Z,98011.00
2022-10-31T23:11:21.172Z,98004.72
2022-10-31T23:14:07.871Z,98009.44
2022-10-31T23:16:40.175Z,97998.06
2022-10-31T23:19:08.066Z,98010.94
2022-10-31T23:21:55.063Z,98013.22
2022-10-31T23:24:45.324Z,98005.50
2022-10-31T23:27:21.088Z,98015.56
2022-10-31T23:29:47.500Z,98013.09
2022-10-31T23:32:21.412Z,98007.09
2022-10-31T23:34:52.849Z,98013.34
2022-10-31T23:37:21.604Z,98008.81
2022-10-31T23:39:48.651Z,98022.66
2022-10-31T23:42:15.770Z,98002.72
2022-10-31T23:44:42.917Z,98028.91
2022-10-31T23:47:09.371Z,98028.44
2022-10-31T23:49:35.915Z,98036.00
2022-10-31T23:52:03.491Z,98027.59
2022-10-31T23:54:30.600Z,98026.13
2022-10-31T23:56:58.050Z,98029.25
2022-10-31T23:59:25.913Z,98025.59
